sensor_id;sensor_type;location;lat;lon;timestamp;P1;durP1;ratioP1;P2;durP2;ratioP2
65174;SDS011;51761;42.126;24.752;2022-08-19T00:01:12;11.55;;;6.68;;
65174;SDS011;51761;42.126;24.752;2022-08-19T00:03:38;13.10;;;6.80;;
65174;SDS011;51761;42.126;24.752;2022-08-19T00:06:04;13.02;;;7.35;;
65174;SDS011;51761;42.126;24.752;2022-08-19T00:08:29;11.65;;;7.35;;
65174;SDS011;51761;42.126;24.752;2022-08-19T00:10:55;15.25;;;7.68;;
65174;SDS011;51761;42.126;24.752;2022-08-19T00:13:21;15.85;;;7.53;;
65174;SDS011;51761;42.126;24.752;2022-08-19T00:15:46;13.52;;;7.68;;
65174;SDS011;51761;42.126;24.752;2022-08-19T00:18:12;12.68;;;7.25;;
65174;SDS011;51761;42.126;24.752;2022-08-19T00:20:37;10.93;;;6.97;;
65174;SDS011;51761;42.126;24.752;2022-08-19T00:23:05;9.68;;;7.05;;
65174;SDS011;51761;42.126;24.752;2022-08-19T00:25:32;19.42;;;7.75;;
65174;SDS011;51761;42.126;24.752;2022-08-19T00:27:58;18.17;;;7.95;;
65174;SDS011;51761;42.126;24.752;2022-08-19T00:30:24;18.02;;;8.15;;
65174;SDS011;51761;42.126;24.752;2022-08-19T00:32:52;12.82;;;8.43;;
65174;SDS011;51761;42.126;24.752;2022-08-19T00:35:19;16.58;;;8.93;;
65174;SDS011;51761;42.126;24.752;2022-08-19T00:37:46;20.83;;;8.57;;
65174;SDS011;51761;42.126;24.752;2022-08-19T00:40:13;13.18;;;8.88;;
65174;SDS011;51761;42.126;24.752;2022-08-19T00:42:39;14.13;;;8.48;;
65174;SDS011;51761;42.126;24.752;2022-08-19T00:45:16;12.40;;;8.63;;
65174;SDS011;51761;42.126;24.752;2022-08-19T00:47:45;17.10;;;8.85;;
65174;SDS011;51761;42.126;24.752;2022-08-19T00:50:11;14.73;;;8.77;;
65174;SDS011;51761;42.126;24.752;2022-08-19T00:52:41;12.27;;;9.20;;
65174;SDS011;51761;42.126;24.752;2022-08-19T00:55:11;15.45;;;9.40;;
65174;SDS011;51761;42.126;24.752;2022-08-19T00:57:42;13.18;;;8.60;;
65174;SDS011;51761;42.126;24.752;2022-08-19T01:00:14;17.58;;;9.20;;
65174;SDS011;51761;42.126;24.752;2022-08-19T01:02:43;13.35;;;8.68;;
65174;SDS011;51761;42.126;24.752;2022-08-19T01:05:10;17.13;;;9.55;;
65174;SDS011;51761;42.126;24.752;2022-08-19T01:07:40;13.60;;;8.45;;
65174;SDS011;51761;42.126;24.752;2022-08-19T01:10:08;17.17;;;9.32;;
65174;SDS011;51761;42.126;24.752;2022-08-19T01:12:38;14.68;;;9.43;;
65174;SDS011;51761;42.126;24.752;2022-08-19T01:15:06;18.50;;;9.45;;
65174;SDS011;51761;42.126;24.752;2022-08-19T01:17:34;14.43;;;9.05;;
65174;SDS011;51761;42.126;24.752;2022-08-19T01:20:03;12.90;;;9.15;;
65174;SDS011;51761;42.126;24.752;2022-08-19T01:22:34;12.15;;;8.80;;
65174;SDS011;51761;42.126;24.752;2022-08-19T01:25:18;13.43;;;9.27;;
65174;SDS011;51761;42.126;24.752;2022-08-19T01:27:47;13.73;;;8.85;;
65174;SDS011;51761;42.126;24.752;2022-08-19T01:30:16;16.15;;;8.88;;
65174;SDS011;51761;42.126;24.752;2022-08-19T01:32:45;14.75;;;9.25;;
65174;SDS011;51761;42.126;24.752;2022-08-19T01:35:12;16.48;;;8.95;;
65174;SDS011;51761;42.126;24.752;2022-08-19T01:37:44;16.60;;;8.98;;
65174;SDS011;51761;42.126;24.752;2022-08-19T01:40:15;18.27;;;9.25;;
65174;SDS011;51761;42.126;24.752;2022-08-19T01:42:41;16.83;;;9.20;;
65174;SDS011;51761;42.126;24.752;2022-08-19T01:45:08;20.80;;;9.90;;
65174;SDS011;51761;42.126;24.752;2022-08-19T01:47:37;19.60;;;9.55;;
65174;SDS011;51761;42.126;24.752;2022-08-19T01:50:03;23.13;;;10.00;;
65174;SDS011;51761;42.126;24.752;2022-08-19T01:52:31;17.85;;;9.35;;
65174;SDS011;51761;42.126;24.752;2022-08-19T01:54:56;17.77;;;8.98;;
65174;SDS011;51761;42.126;24.752;2022-08-19T01:57:22;22.10;;;9.98;;
65174;SDS011;51761;42.126;24.752;2022-08-19T01:59:48;19.92;;;9.35;;
65174;SDS011;51761;42.126;24.752;2022-08-19T02:02:13;17.10;;;8.57;;
65174;SDS011;51761;42.126;24.752;2022-08-19T02:04:39;17.73;;;9.18;;
65174;SDS011;51761;42.126;24.752;2022-08-19T02:07:05;15.85;;;9.02;;
65174;SDS011;51761;42.126;24.752;2022-08-19T02:09:32;18.77;;;9.45;;
65174;SDS011;51761;42.126;24.752;2022-08-19T02:11:59;17.02;;;8.93;;
65174;SDS011;51761;42.126;24.752;2022-08-19T02:16:58;13.43;;;9.10;;
65174;SDS011;51761;42.126;24.752;2022-08-19T02:19:23;15.15;;;8.70;;
65174;SDS011;51761;42.126;24.752;2022-08-19T02:21:49;16.83;;;9.00;;
65174;SDS011;51761;42.126;24.752;2022-08-19T02:24:14;20.70;;;8.98;;
65174;SDS011;51761;42.126;24.752;2022-08-19T02:26:40;17.33;;;8.68;;
65174;SDS011;51761;42.126;24.752;2022-08-19T02:29:06;13.30;;;8.95;;
65174;SDS011;51761;42.126;24.752;2022-08-19T02:31:31;13.25;;;8.38;;
65174;SDS011;51761;42.126;24.752;2022-08-19T02:33:57;10.85;;;8.02;;
65174;SDS011;51761;42.126;24.752;2022-08-19T02:36:23;15.00;;;8.88;;
65174;SDS011;51761;42.126;24.752;2022-08-19T02:38:50;17.83;;;9.30;;
65174;SDS011;51761;42.126;24.752;2022-08-19T02:41:17;19.08;;;8.48;;
65174;SDS011;51761;42.126;24.752;2022-08-19T02:43:45;27.55;;;9.27;;
65174;SDS011;51761;42.126;24.752;2022-08-19T02:46:24;15.65;;;9.15;;
65174;SDS011;51761;42.126;24.752;2022-08-19T02:48:52;20.38;;;9.80;;
65174;SDS011;51761;42.126;24.752;2022-08-19T02:51:21;18.08;;;9.95;;
65174;SDS011;51761;42.126;24.752;2022-08-19T02:53:49;16.20;;;9.07;;
65174;SDS011;51761;42.126;24.752;2022-08-19T02:56:15;19.00;;;9.45;;
65174;SDS011;51761;42.126;24.752;2022-08-19T02:58:41;16.90;;;9.82;;
65174;SDS011;51761;42.126;24.752;2022-08-19T03:01:08;20.70;;;10.00;;
65174;SDS011;51761;42.126;24.752;2022-08-19T03:03:35;21.15;;;9.95;;
65174;SDS011;51761;42.126;24.752;2022-08-19T03:06:11;16.85;;;9.75;;
65174;SDS011;51761;42.126;24.752;2022-08-19T03:08:39;17.30;;;9.68;;
65174;SDS011;51761;42.126;24.752;2022-08-19T03:11:11;17.48;;;10.00;;
65174;SDS011;51761;42.126;24.752;2022-08-19T03:13:45;18.38;;;10.80;;
65174;SDS011;51761;42.126;24.752;2022-08-19T03:16:11;16.02;;;9.65;;
65174;SDS011;51761;42.126;24.752;2022-08-19T03:18:37;15.85;;;10.20;;
65174;SDS011;51761;42.126;24.752;2022-08-19T03:21:04;18.67;;;10.02;;
65174;SDS011;51761;42.126;24.752;2022-08-19T03:23:30;13.57;;;9.88;;
65174;SDS011;51761;42.126;24.752;2022-08-19T03:25:56;19.63;;;8.90;;
65174;SDS011;51761;42.126;24.752;2022-08-19T03:28:22;16.98;;;9.35;;
65174;SDS011;51761;42.126;24.752;2022-08-19T03:30:55;19.77;;;9.68;;
65174;SDS011;51761;42.126;24.752;2022-08-19T03:33:22;24.27;;;10.07;;
65174;SDS011;51761;42.126;24.752;2022-08-19T03:35:59;18.08;;;10.05;;
65174;SDS011;51761;42.126;24.752;2022-08-19T03:38:30;18.77;;;10.00;;
65174;SDS011;51761;42.126;24.752;2022-08-19T03:40:57;26.10;;;13.82;;
65174;SDS011;51761;42.126;24.752;2022-08-19T03:43:23;45.08;;;24.48;;
65174;SDS011;51761;42.126;24.752;2022-08-19T03:45:48;20.90;;;12.07;;
65174;SDS011;51761;42.126;24.752;2022-08-19T03:48:14;20.92;;;10.95;;
65174;SDS011;51761;42.126;24.752;2022-08-19T03:50:42;20.67;;;11.20;;
65174;SDS011;51761;42.126;24.752;2022-08-19T03:53:07;21.15;;;13.13;;
65174;SDS011;51761;42.126;24.752;2022-08-19T03:55:34;26.52;;;13.35;;
65174;SDS011;51761;42.126;24.752;2022-08-19T03:58:04;21.92;;;11.45;;
65174;SDS011;51761;42.126;24.752;2022-08-19T04:00:31;22.48;;;12.80;;
65174;SDS011;51761;42.126;24.752;2022-08-19T04:02:58;31.38;;;16.70;;
65174;SDS011;51761;42.126;24.752;2022-08-19T04:05:24;28.90;;;15.68;;
65174;SDS011;51761;42.126;24.752;2022-08-19T04:07:53;33.42;;;12.55;;
65174;SDS011;51761;42.126;24.752;2022-08-19T04:10:20;30.73;;;12.77;;
65174;SDS011;51761;42.126;24.752;2022-08-19T04:12:45;37.28;;;14.02;;
65174;SDS011;51761;42.126;24.752;2022-08-19T04:15:11;29.65;;;13.23;;
65174;SDS011;51761;42.126;24.752;2022-08-19T04:17:36;34.85;;;13.05;;
65174;SDS011;51761;42.126;24.752;2022-08-19T04:20:02;37.13;;;13.07;;
65174;SDS011;51761;42.126;24.752;2022-08-19T04:22:28;39.88;;;12.80;;
65174;SDS011;51761;42.126;24.752;2022-08-19T04:24:54;47.42;;;14.60;;
65174;SDS011;51761;42.126;24.752;2022-08-19T04:27:20;51.60;;;20.98;;
65174;SDS011;51761;42.126;24.752;2022-08-19T04:29:45;32.38;;;12.63;;
65174;SDS011;51761;42.126;24.752;2022-08-19T04:32:12;31.08;;;10.93;;
65174;SDS011;51761;42.126;24.752;2022-08-19T04:34:40;33.95;;;11.10;;
65174;SDS011;51761;42.126;24.752;2022-08-19T04:37:07;32.75;;;12.40;;
65174;SDS011;51761;42.126;24.752;2022-08-19T04:39:37;30.67;;;12.65;;
65174;SDS011;51761;42.126;24.752;2022-08-19T04:42:22;25.83;;;11.55;;
65174;SDS011;51761;42.126;24.752;2022-08-19T04:45:07;26.77;;;12.10;;
65174;SDS011;51761;42.126;24.752;2022-08-19T04:47:38;32.03;;;13.10;;
65174;SDS011;51761;42.126;24.752;2022-08-19T04:50:06;25.65;;;12.35;;
65174;SDS011;51761;42.126;24.752;2022-08-19T04:52:33;28.15;;;11.48;;
65174;SDS011;51761;42.126;24.752;2022-08-19T04:54:58;30.38;;;12.40;;
65174;SDS011;51761;42.126;24.752;2022-08-19T04:57:24;24.77;;;11.88;;
65174;SDS011;51761;42.126;24.752;2022-08-19T04:59:54;45.88;;;19.83;;
65174;SDS011;51761;42.126;24.752;2022-08-19T05:02:21;44.03;;;14.65;;
65174;SDS011;51761;42.126;24.752;2022-08-19T05:04:59;32.13;;;13.25;;
65174;SDS011;51761;42.126;24.752;2022-08-19T05:07:26;46.47;;;14.38;;
65174;SDS011;51761;42.126;24.752;2022-08-19T05:09:52;39.72;;;13.95;;
65174;SDS011;51761;42.126;24.752;2022-08-19T05:12:18;37.97;;;13.80;;
65174;SDS011;51761;42.126;24.752;2022-08-19T05:14:44;51.05;;;13.25;;
65174;SDS011;51761;42.126;24.752;2022-08-19T05:17:12;45.53;;;13.68;;
65174;SDS011;51761;42.126;24.752;2022-08-19T05:19:38;39.55;;;13.23;;
65174;SDS011;51761;42.126;24.752;2022-08-19T05:22:22;56.53;;;13.18;;
65174;SDS011;51761;42.126;24.752;2022-08-19T05:25:33;36.55;;;13.40;;
65174;SDS011;51761;42.126;24.752;2022-08-19T05:27:52;39.60;;;16.48;;
65174;SDS011;51761;42.126;24.752;2022-08-19T05:30:17;39.53;;;18.38;;
65174;SDS011;51761;42.126;24.752;2022-08-19T05:32:43;23.60;;;10.82;;
65174;SDS011;51761;42.126;24.752;2022-08-19T05:35:09;18.85;;;8.77;;
65174;SDS011;51761;42.126;24.752;2022-08-19T05:37:36;20.83;;;7.55;;
65174;SDS011;51761;42.126;24.752;2022-08-19T05:40:05;15.40;;;8.30;;
65174;SDS011;51761;42.126;24.752;2022-08-19T05:42:31;20.13;;;8.40;;
65174;SDS011;51761;42.126;24.752;2022-08-19T05:44:56;15.70;;;8.13;;
65174;SDS011;51761;42.126;24.752;2022-08-19T05:47:22;21.35;;;7.60;;
65174;SDS011;51761;42.126;24.752;2022-08-19T05:49:48;16.70;;;7.82;;
65174;SDS011;51761;42.126;24.752;2022-08-19T05:52:15;17.77;;;7.97;;
65174;SDS011;51761;42.126;24.752;2022-08-19T05:54:41;13.50;;;7.22;;
65174;SDS011;51761;42.126;24.752;2022-08-19T05:57:07;22.30;;;7.93;;
65174;SDS011;51761;42.126;24.752;2022-08-19T05:59:34;18.73;;;7.10;;
65174;SDS011;51761;42.126;24.752;2022-08-19T06:02:03;15.88;;;6.97;;
65174;SDS011;51761;42.126;24.752;2022-08-19T06:04:29;15.43;;;7.28;;
65174;SDS011;51761;42.126;24.752;2022-08-19T06:06:55;15.55;;;6.95;;
65174;SDS011;51761;42.126;24.752;2022-08-19T06:09:21;10.38;;;7.70;;
65174;SDS011;51761;42.126;24.752;2022-08-19T06:11:48;13.23;;;7.25;;
65174;SDS011;51761;42.126;24.752;2022-08-19T06:14:21;13.73;;;7.18;;
65174;SDS011;51761;42.126;24.752;2022-08-19T06:16:49;14.48;;;8.30;;
65174;SDS011;51761;42.126;24.752;2022-08-19T06:19:17;20.98;;;7.43;;
65174;SDS011;51761;42.126;24.752;2022-08-19T06:21:45;11.80;;;7.28;;
65174;SDS011;51761;42.126;24.752;2022-08-19T06:24:13;15.88;;;7.78;;
65174;SDS011;51761;42.126;24.752;2022-08-19T06:26:42;16.80;;;7.10;;
65174;SDS011;51761;42.126;24.752;2022-08-19T06:29:10;68.07;;;39.47;;
65174;SDS011;51761;42.126;24.752;2022-08-19T06:31:40;12.82;;;8.10;;
65174;SDS011;51761;42.126;24.752;2022-08-19T06:34:10;17.45;;;7.85;;
65174;SDS011;51761;42.126;24.752;2022-08-19T06:36:41;20.02;;;7.43;;
65174;SDS011;51761;42.126;24.752;2022-08-19T06:39:13;17.05;;;7.60;;
65174;SDS011;51761;42.126;24.752;2022-08-19T06:41:42;13.90;;;6.88;;
65174;SDS011;51761;42.126;24.752;2022-08-19T06:44:09;14.73;;;6.65;;
65174;SDS011;51761;42.126;24.752;2022-08-19T06:46:36;13.10;;;6.93;;
65174;SDS011;51761;42.126;24.752;2022-08-19T06:49:02;11.23;;;7.00;;
65174;SDS011;51761;42.126;24.752;2022-08-19T06:51:28;23.20;;;11.75;;
65174;SDS011;51761;42.126;24.752;2022-08-19T06:53:54;12.88;;;8.40;;
65174;SDS011;51761;42.126;24.752;2022-08-19T06:56:22;10.27;;;6.90;;
65174;SDS011;51761;42.126;24.752;2022-08-19T06:58:59;11.05;;;6.25;;
65174;SDS011;51761;42.126;24.752;2022-08-19T07:01:27;13.25;;;6.88;;
65174;SDS011;51761;42.126;24.752;2022-08-19T07:03:53;11.23;;;6.15;;
65174;SDS011;51761;42.126;24.752;2022-08-19T07:06:19;8.90;;;6.38;;
65174;SDS011;51761;42.126;24.752;2022-08-19T07:08:45;12.57;;;6.00;;
65174;SDS011;51761;42.126;24.752;2022-08-19T07:11:13;11.27;;;6.40;;
65174;SDS011;51761;42.126;24.752;2022-08-19T07:13:41;13.45;;;6.05;;
65174;SDS011;51761;42.126;24.752;2022-08-19T07:16:09;12.02;;;5.97;;
65174;SDS011;51761;42.126;24.752;2022-08-19T07:18:37;13.07;;;6.53;;
65174;SDS011;51761;42.126;24.752;2022-08-19T07:21:08;13.07;;;6.53;;
65174;SDS011;51761;42.126;24.752;2022-08-19T07:23:35;12.15;;;6.47;;
65174;SDS011;51761;42.126;24.752;2022-08-19T07:26:08;8.50;;;5.60;;
65174;SDS011;51761;42.126;24.752;2022-08-19T07:28:39;18.60;;;5.88;;
65174;SDS011;51761;42.126;24.752;2022-08-19T07:31:08;13.48;;;6.30;;
65174;SDS011;51761;42.126;24.752;2022-08-19T07:33:35;13.60;;;5.90;;
65174;SDS011;51761;42.126;24.752;2022-08-19T07:36:05;8.38;;;5.65;;
65174;SDS011;51761;42.126;24.752;2022-08-19T07:38:32;8.80;;;5.72;;
65174;SDS011;51761;42.126;24.752;2022-08-19T07:40:59;14.15;;;5.72;;
65174;SDS011;51761;42.126;24.752;2022-08-19T07:43:26;10.13;;;5.38;;
65174;SDS011;51761;42.126;24.752;2022-08-19T07:45:53;9.65;;;6.22;;
65174;SDS011;51761;42.126;24.752;2022-08-19T07:48:25;14.63;;;5.43;;
65174;SDS011;51761;42.126;24.752;2022-08-19T07:50:56;10.35;;;5.22;;
65174;SDS011;51761;42.126;24.752;2022-08-19T07:53:24;14.20;;;5.47;;
65174;SDS011;51761;42.126;24.752;2022-08-19T07:55:50;7.65;;;5.05;;
65174;SDS011;51761;42.126;24.752;2022-08-19T07:58:17;10.82;;;5.63;;
65174;SDS011;51761;42.126;24.752;2022-08-19T08:00:44;15.85;;;7.05;;
65174;SDS011;51761;42.126;24.752;2022-08-19T08:03:12;13.38;;;5.65;;
65174;SDS011;51761;42.126;24.752;2022-08-19T08:05:38;10.10;;;5.55;;
65174;SDS011;51761;42.126;24.752;2022-08-19T08:08:23;14.10;;;4.78;;
65174;SDS011;51761;42.126;24.752;2022-08-19T08:11:07;6.55;;;5.68;;
65174;SDS011;51761;42.126;24.752;2022-08-19T08:13:33;6.95;;;4.32;;
65174;SDS011;51761;42.126;24.752;2022-08-19T08:16:00;12.40;;;7.13;;
65174;SDS011;51761;42.126;24.752;2022-08-19T08:18:27;11.07;;;6.80;;
65174;SDS011;51761;42.126;24.752;2022-08-19T08:20:53;5.63;;;4.90;;
65174;SDS011;51761;42.126;24.752;2022-08-19T08:23:20;7.78;;;5.50;;
65174;SDS011;51761;42.126;24.752;2022-08-19T08:25:50;13.65;;;5.88;;
65174;SDS011;51761;42.126;24.752;2022-08-19T08:28:18;7.82;;;4.88;;
65174;SDS011;51761;42.126;24.752;2022-08-19T08:30:44;14.25;;;5.82;;
65174;SDS011;51761;42.126;24.752;2022-08-19T08:33:12;11.57;;;5.10;;
65174;SDS011;51761;42.126;24.752;2022-08-19T08:35:39;7.35;;;4.22;;
65174;SDS011;51761;42.126;24.752;2022-08-19T08:38:06;10.52;;;5.60;;
65174;SDS011;51761;42.126;24.752;2022-08-19T08:43:21;7.25;;;4.45;;
65174;SDS011;51761;42.126;24.752;2022-08-19T08:46:05;5.38;;;4.60;;
65174;SDS011;51761;42.126;24.752;2022-08-19T08:48:51;15.18;;;4.97;;
65174;SDS011;51761;42.126;24.752;2022-08-19T08:51:33;14.07;;;5.45;;
65174;SDS011;51761;42.126;24.752;2022-08-19T08:54:04;16.92;;;6.05;;
65174;SDS011;51761;42.126;24.752;2022-08-19T08:56:31;7.05;;;5.47;;
65174;SDS011;51761;42.126;24.752;2022-08-19T09:01:59;8.57;;;4.78;;
65174;SDS011;51761;42.126;24.752;2022-08-19T09:04:24;9.27;;;4.63;;
65174;SDS011;51761;42.126;24.752;2022-08-19T09:09:39;9.90;;;4.93;;
65174;SDS011;51761;42.126;24.752;2022-08-19T09:15:12;10.48;;;5.28;;
65174;SDS011;51761;42.126;24.752;2022-08-19T09:17:39;11.02;;;4.68;;
65174;SDS011;51761;42.126;24.752;2022-08-19T09:22:39;13.00;;;5.28;;
65174;SDS011;51761;42.126;24.752;2022-08-19T09:25:09;4.97;;;4.10;;
65174;SDS011;51761;42.126;24.752;2022-08-19T09:27:37;10.82;;;4.75;;
65174;SDS011;51761;42.126;24.752;2022-08-19T09:30:04;8.38;;;5.30;;
65174;SDS011;51761;42.126;24.752;2022-08-19T09:32:30;14.40;;;5.50;;
65174;SDS011;51761;42.126;24.752;2022-08-19T09:34:56;11.38;;;5.38;;
65174;SDS011;51761;42.126;24.752;2022-08-19T09:37:23;8.75;;;4.45;;
65174;SDS011;51761;42.126;24.752;2022-08-19T09:39:50;5.60;;;4.55;;
65174;SDS011;51761;42.126;24.752;2022-08-19T09:42:16;12.10;;;4.38;;
65174;SDS011;51761;42.126;24.752;2022-08-19T09:44:42;7.47;;;4.50;;
65174;SDS011;51761;42.126;24.752;2022-08-19T09:47:08;6.80;;;4.40;;
65174;SDS011;51761;42.126;24.752;2022-08-19T09:49:35;10.40;;;4.35;;
65174;SDS011;51761;42.126;24.752;2022-08-19T09:52:01;8.73;;;4.60;;
65174;SDS011;51761;42.126;24.752;2022-08-19T09:54:26;10.43;;;5.05;;
65174;SDS011;51761;42.126;24.752;2022-08-19T09:56:53;26.20;;;4.55;;
65174;SDS011;51761;42.126;24.752;2022-08-19T09:59:20;5.95;;;4.80;;
65174;SDS011;51761;42.126;24.752;2022-08-19T10:01:46;5.90;;;4.38;;
65174;SDS011;51761;42.126;24.752;2022-08-19T10:04:11;7.00;;;4.65;;
65174;SDS011;51761;42.126;24.752;2022-08-19T10:06:38;9.07;;;4.65;;
65174;SDS011;51761;42.126;24.752;2022-08-19T10:09:05;7.82;;;4.47;;
65174;SDS011;51761;42.126;24.752;2022-08-19T10:11:36;6.60;;;4.40;;
65174;SDS011;51761;42.126;24.752;2022-08-19T10:14:04;22.13;;;15.27;;
65174;SDS011;51761;42.126;24.752;2022-08-19T10:16:33;8.25;;;4.57;;
65174;SDS011;51761;42.126;24.752;2022-08-19T10:19:01;8.07;;;5.25;;
65174;SDS011;51761;42.126;24.752;2022-08-19T10:21:28;9.50;;;5.45;;
65174;SDS011;51761;42.126;24.752;2022-08-19T10:23:56;7.20;;;4.82;;
65174;SDS011;51761;42.126;24.752;2022-08-19T10:26:27;9.13;;;4.90;;
65174;SDS011;51761;42.126;24.752;2022-08-19T10:28:55;11.20;;;5.18;;
65174;SDS011;51761;42.126;24.752;2022-08-19T10:31:23;6.70;;;4.53;;
65174;SDS011;51761;42.126;24.752;2022-08-19T10:33:51;6.80;;;4.68;;
65174;SDS011;51761;42.126;24.752;2022-08-19T10:36:24;8.23;;;4.63;;
65174;SDS011;51761;42.126;24.752;2022-08-19T10:38:54;9.18;;;4.93;;
65174;SDS011;51761;42.126;24.752;2022-08-19T10:41:24;7.78;;;4.65;;
65174;SDS011;51761;42.126;24.752;2022-08-19T10:43:51;6.13;;;5.20;;
65174;SDS011;51761;42.126;24.752;2022-08-19T10:46:20;5.80;;;4.45;;
65174;SDS011;51761;42.126;24.752;2022-08-19T10:48:48;9.32;;;5.70;;
65174;SDS011;51761;42.126;24.752;2022-08-19T10:51:14;5.13;;;4.10;;
65174;SDS011;51761;42.126;24.752;2022-08-19T10:53:59;12.55;;;5.03;;
65174;SDS011;51761;42.126;24.752;2022-08-19T10:56:26;9.30;;;5.03;;
65174;SDS011;51761;42.126;24.752;2022-08-19T10:59:11;5.88;;;4.18;;
65174;SDS011;51761;42.126;24.752;2022-08-19T11:01:39;4.88;;;4.32;;
65174;SDS011;51761;42.126;24.752;2022-08-19T11:04:05;6.60;;;3.65;;
65174;SDS011;51761;42.126;24.752;2022-08-19T11:06:34;9.25;;;4.13;;
65174;SDS011;51761;42.126;24.752;2022-08-19T11:09:01;6.65;;;3.90;;
65174;SDS011;51761;42.126;24.752;2022-08-19T11:11:28;11.48;;;6.05;;
65174;SDS011;51761;42.126;24.752;2022-08-19T11:13:53;6.15;;;4.78;;
65174;SDS011;51761;42.126;24.752;2022-08-19T11:16:20;10.90;;;6.55;;
65174;SDS011;51761;42.126;24.752;2022-08-19T11:18:52;10.95;;;4.80;;
65174;SDS011;51761;42.126;24.752;2022-08-19T11:23:45;5.40;;;4.65;;
65174;SDS011;51761;42.126;24.752;2022-08-19T11:26:13;10.88;;;4.88;;
65174;SDS011;51761;42.126;24.752;2022-08-19T11:28:39;6.32;;;3.88;;
65174;SDS011;51761;42.126;24.752;2022-08-19T11:31:10;5.63;;;3.75;;
65174;SDS011;51761;42.126;24.752;2022-08-19T11:33:40;8.70;;;3.95;;
65174;SDS011;51761;42.126;24.752;2022-08-19T11:36:05;6.45;;;3.30;;
65174;SDS011;51761;42.126;24.752;2022-08-19T11:38:32;7.35;;;3.85;;
65174;SDS011;51761;42.126;24.752;2022-08-19T11:41:00;6.28;;;3.55;;
65174;SDS011;51761;42.126;24.752;2022-08-19T11:43:28;8.27;;;3.85;;
65174;SDS011;51761;42.126;24.752;2022-08-19T11:45:54;5.38;;;3.45;;
65174;SDS011;51761;42.126;24.752;2022-08-19T11:48:21;30.55;;;20.17;;
65174;SDS011;51761;42.126;24.752;2022-08-19T11:50:50;15.02;;;5.18;;
65174;SDS011;51761;42.126;24.752;2022-08-19T11:53:18;6.38;;;4.00;;
65174;SDS011;51761;42.126;24.752;2022-08-19T11:55:45;6.45;;;4.03;;
65174;SDS011;51761;42.126;24.752;2022-08-19T11:58:12;8.18;;;3.80;;
65174;SDS011;51761;42.126;24.752;2022-08-19T12:00:39;8.55;;;4.60;;
65174;SDS011;51761;42.126;24.752;2022-08-19T12:03:05;6.68;;;4.07;;
65174;SDS011;51761;42.126;24.752;2022-08-19T12:05:31;5.05;;;4.00;;
65174;SDS011;51761;42.126;24.752;2022-08-19T12:07:57;5.45;;;3.85;;
65174;SDS011;51761;42.126;24.752;2022-08-19T12:10:23;5.47;;;4.50;;
65174;SDS011;51761;42.126;24.752;2022-08-19T12:12:49;13.70;;;4.22;;
65174;SDS011;51761;42.126;24.752;2022-08-19T12:15:14;7.63;;;4.40;;
65174;SDS011;51761;42.126;24.752;2022-08-19T12:17:40;12.90;;;4.22;;
65174;SDS011;51761;42.126;24.752;2022-08-19T12:20:07;6.07;;;4.50;;
65174;SDS011;51761;42.126;24.752;2022-08-19T12:22:38;11.25;;;4.40;;
65174;SDS011;51761;42.126;24.752;2022-08-19T12:25:06;6.85;;;4.55;;
65174;SDS011;51761;42.126;24.752;2022-08-19T12:27:33;5.70;;;3.95;;
65174;SDS011;51761;42.126;24.752;2022-08-19T12:30:00;8.82;;;3.75;;
65174;SDS011;51761;42.126;24.752;2022-08-19T12:32:27;4.80;;;4.25;;
65174;SDS011;51761;42.126;24.752;2022-08-19T12:34:52;5.50;;;3.75;;
65174;SDS011;51761;42.126;24.752;2022-08-19T12:37:18;10.55;;;4.40;;
65174;SDS011;51761;42.126;24.752;2022-08-19T12:39:43;12.13;;;4.30;;
65174;SDS011;51761;42.126;24.752;2022-08-19T12:42:10;7.22;;;4.28;;
65174;SDS011;51761;42.126;24.752;2022-08-19T12:44:37;7.10;;;4.10;;
65174;SDS011;51761;42.126;24.752;2022-08-19T12:47:05;5.97;;;4.15;;
65174;SDS011;51761;42.126;24.752;2022-08-19T12:49:32;7.05;;;4.15;;
65174;SDS011;51761;42.126;24.752;2022-08-19T12:52:02;5.70;;;4.32;;
65174;SDS011;51761;42.126;24.752;2022-08-19T12:54:29;6.43;;;3.97;;
65174;SDS011;51761;42.126;24.752;2022-08-19T12:56:58;7.80;;;4.13;;
65174;SDS011;51761;42.126;24.752;2022-08-19T12:59:25;7.15;;;4.20;;
65174;SDS011;51761;42.126;24.752;2022-08-19T13:01:51;9.93;;;4.30;;
65174;SDS011;51761;42.126;24.752;2022-08-19T13:04:17;7.45;;;4.45;;
65174;SDS011;51761;42.126;24.752;2022-08-19T13:06:43;35.28;;;22.27;;
65174;SDS011;51761;42.126;24.752;2022-08-19T13:09:09;8.07;;;4.70;;
65174;SDS011;51761;42.126;24.752;2022-08-19T13:11:35;9.93;;;4.50;;
65174;SDS011;51761;42.126;24.752;2022-08-19T13:14:02;9.95;;;3.85;;
65174;SDS011;51761;42.126;24.752;2022-08-19T13:16:29;10.13;;;4.57;;
65174;SDS011;51761;42.126;24.752;2022-08-19T13:18:55;5.47;;;3.88;;
65174;SDS011;51761;42.126;24.752;2022-08-19T13:21:23;6.53;;;4.35;;
65174;SDS011;51761;42.126;24.752;2022-08-19T13:23:52;7.03;;;4.00;;
65174;SDS011;51761;42.126;24.752;2022-08-19T13:26:18;8.98;;;4.53;;
65174;SDS011;51761;42.126;24.752;2022-08-19T13:28:44;8.70;;;4.10;;
65174;SDS011;51761;42.126;24.752;2022-08-19T13:31:29;8.93;;;4.00;;
65174;SDS011;51761;42.126;24.752;2022-08-19T13:34:15;8.77;;;3.92;;
65174;SDS011;51761;42.126;24.752;2022-08-19T13:36:43;6.32;;;4.60;;
65174;SDS011;51761;42.126;24.752;2022-08-19T13:39:08;12.20;;;4.35;;
65174;SDS011;51761;42.126;24.752;2022-08-19T13:41:35;5.57;;;4.05;;
65174;SDS011;51761;42.126;24.752;2022-08-19T13:44:02;10.05;;;4.20;;
65174;SDS011;51761;42.126;24.752;2022-08-19T13:46:28;8.93;;;4.32;;
65174;SDS011;51761;42.126;24.752;2022-08-19T13:48:55;8.63;;;4.35;;
65174;SDS011;51761;42.126;24.752;2022-08-19T13:51:21;6.00;;;4.22;;
65174;SDS011;51761;42.126;24.752;2022-08-19T13:53:47;6.50;;;4.18;;
65174;SDS011;51761;42.126;24.752;2022-08-19T13:56:14;11.35;;;4.60;;
65174;SDS011;51761;42.126;24.752;2022-08-19T13:58:42;6.35;;;3.88;;
65174;SDS011;51761;42.126;24.752;2022-08-19T14:01:08;4.80;;;3.80;;
65174;SDS011;51761;42.126;24.752;2022-08-19T14:03:35;7.28;;;3.70;;
65174;SDS011;51761;42.126;24.752;2022-08-19T14:06:01;10.27;;;4.18;;
65174;SDS011;51761;42.126;24.752;2022-08-19T14:08:27;7.55;;;4.85;;
65174;SDS011;51761;42.126;24.752;2022-08-19T14:10:54;11.93;;;4.18;;
65174;SDS011;51761;42.126;24.752;2022-08-19T14:13:21;8.40;;;4.28;;
65174;SDS011;51761;42.126;24.752;2022-08-19T14:15:49;7.18;;;4.18;;
65174;SDS011;51761;42.126;24.752;2022-08-19T14:18:16;9.60;;;4.30;;
65174;SDS011;51761;42.126;24.752;2022-08-19T14:20:43;8.90;;;4.28;;
65174;SDS011;51761;42.126;24.752;2022-08-19T14:23:09;6.65;;;4.10;;
65174;SDS011;51761;42.126;24.752;2022-08-19T14:25:37;10.60;;;4.20;;
65174;SDS011;51761;42.126;24.752;2022-08-19T14:28:03;7.63;;;4.05;;
65174;SDS011;51761;42.126;24.752;2022-08-19T14:30:32;7.10;;;4.45;;
65174;SDS011;51761;42.126;24.752;2022-08-19T14:33:00;6.38;;;3.92;;
65174;SDS011;51761;42.126;24.752;2022-08-19T14:35:27;7.43;;;3.78;;
65174;SDS011;51761;42.126;24.752;2022-08-19T14:37:54;7.35;;;4.15;;
65174;SDS011;51761;42.126;24.752;2022-08-19T14:40:26;5.05;;;3.95;;
65174;SDS011;51761;42.126;24.752;2022-08-19T14:42:54;11.20;;;3.35;;
65174;SDS011;51761;42.126;24.752;2022-08-19T14:45:29;7.47;;;4.20;;
65174;SDS011;51761;42.126;24.752;2022-08-19T14:48:00;7.72;;;4.15;;